Time;durP1;ratioP1;P1;durP2;ratioP2;P2;SDS_P1;SDS_P2;PMS_P1;PMS_P2;Temp;Humidity;BMP_temperature;BMP_pressure;BME280_temperature;BME280_humidity;BME280_pressure;Samples;Min_cycle;Max_cycle;Signal;HPM_P1;HPM_P2
2022/01/02 00:00:41;;;;;;;9.37;4.77;;;3.70;99.90;;;;;;4862221;29;20193;-87
2022/01/02 00:03:08;;;;;;;9.17;4.53;;;;;;;;;;4846888;29;20190;-87
2022/01/02 00:05:38;;;;;;;8.23;4.30;;;3.70;99.90;;;;;;4863156;29;20190;-87
2022/01/02 00:08:07;;;;;;;8.80;4.23;;;3.70;99.90;;;;;;4846540;29;20201;-87
2022/01/02 00:10:56;;;;;;;9.00;4.47;;;3.70;99.90;;;;;;4862706;29;20193;-88
2022/01/02 00:13:28;;;;;;;7.67;4.70;;;3.60;99.90;;;;;;4862738;29;20189;-87
2022/01/02 00:15:56;;;;;;;16.73;6.60;;;3.70;99.90;;;;;;4863198;29;20184;-87
2022/01/02 00:18:26;;;;;;;28.50;12.40;;;3.60;99.90;;;;;;4862616;29;20643;-86
2022/01/02 00:20:55;;;;;;;32.30;13.33;;;;;;;;;;4861289;29;20398;-87
2022/01/02 00:23:24;;;;;;;30.23;12.70;;;;;;;;;;4861023;29;20186;-88
2022/01/02 00:25:54;;;;;;;25.43;12.13;;;3.60;99.90;;;;;;4862710;29;20194;-88
2022/01/02 00:28:21;;;;;;;33.10;12.47;;;;;;;;;;4861407;29;20642;-88
2022/01/02 00:30:47;;;;;;;43.47;17.13;;;3.50;99.90;;;;;;4862623;29;20182;-86
2022/01/02 00:33:14;;;;;;;33.20;13.93;;;;;;;;;;4861080;29;20182;-90
2022/01/02 00:35:40;;;;;;;36.57;14.23;;;;;;;;;;4861368;29;20185;-87
2022/01/02 00:38:07;;;;;;;37.97;14.37;;;3.50;99.90;;;;;;4862077;29;20201;-86
2022/01/02 00:40:38;;;;;;;35.43;12.43;;;3.50;99.90;;;;;;4862255;29;20285;-86
2022/01/02 00:43:08;;;;;;;28.53;12.10;;;3.50;99.90;;;;;;4862914;29;20212;-87
2022/01/02 00:45:43;;;;;;;27.10;11.57;;;3.50;99.90;;;;;;4860773;29;20986;-87
2022/01/02 00:48:24;;;;;;;24.33;11.37;;;3.70;99.90;;;;;;4862282;29;20165;-86
2022/01/02 00:50:55;;;;;;;27.70;11.20;;;3.40;99.90;;;;;;4860969;29;20189;-87
2022/01/02 00:53:24;;;;;;;30.47;11.10;;;3.30;99.90;;;;;;4865136;29;20245;-87
2022/01/02 00:55:56;;;;;;;29.57;12.07;;;3.30;99.90;;;;;;4869482;29;20237;-86
2022/01/02 00:58:30;;;;;;;25.13;11.60;;;3.30;99.90;;;;;;4865128;29;20197;-87
2022/01/02 01:00:59;;;;;;;36.63;13.27;;;3.30;99.90;;;;;;4862595;29;20190;-87
2022/01/02 01:03:30;;;;;;;37.40;14.77;;;3.60;99.90;;;;;;4861907;29;20231;-87
2022/01/02 01:05:57;;;;;;;34.00;12.47;;;;;;;;;;4862327;29;20188;-87
2022/01/02 01:08:23;;;;;;;30.20;11.17;;;3.20;99.90;;;;;;4862047;29;20211;-87
2022/01/02 01:10:50;;;;;;;35.07;12.40;;;3.20;99.90;;;;;;4862599;29;20194;-87
2022/01/02 01:13:17;;;;;;;28.90;12.43;;;;;;;;;;4863246;29;20242;-87
2022/01/02 01:15:43;;;;;;;28.40;11.43;;;;;;;;;;4865409;29;20187;-87
2022/01/02 01:18:09;;;;;;;26.53;10.03;;;;;;;;;;4868479;29;20237;-88
2022/01/02 01:20:41;;;;;;;30.43;12.43;;;3.20;99.90;;;;;;4866386;29;20193;-88
2022/01/02 01:23:07;;;;;;;24.17;11.53;;;;;;;;;;4869303;29;20194;-88
2022/01/02 01:25:35;;;;;;;31.80;14.07;;;;;;;;;;4867559;29;20296;-88
2022/01/02 01:28:02;;;;;;;23.53;12.77;;;;;;;;;;4867375;29;20173;-87
2022/01/02 01:30:28;;;;;;;34.87;14.37;;;;;;;;;;4865049;29;20179;-86
2022/01/02 01:32:54;;;;;;;28.00;13.10;;;;;;;;;;4863960;29;20187;-87
2022/01/02 01:35:22;;;;;;;27.30;12.73;;;3.00;99.90;;;;;;4863507;29;20296;-87
2022/01/02 01:37:48;;;;;;;30.80;14.33;;;;;;;;;;4863924;29;20543;-86
2022/01/02 01:40:15;;;;;;;36.17;16.53;;;3.00;99.90;;;;;;4863625;29;20187;-87
2022/01/02 01:42:54;;;;;;;30.10;13.53;;;3.00;99.90;;;;;;4861521;29;20187;-87
2022/01/02 01:47:49;;;;;;;29.30;14.50;;;2.90;99.90;;;;;;4863488;29;20231;-87
2022/01/02 01:50:15;;;;;;;28.47;14.10;;;;;;;;;;4862380;29;20186;-87
2022/01/02 01:52:41;;;;;;;35.77;14.53;;;2.90;99.90;;;;;;4846633;29;20200;-87
2022/01/02 01:55:07;;;;;;;29.03;13.47;;;3.20;99.90;;;;;;4862713;29;20219;-87
2022/01/02 01:57:34;;;;;;;27.77;11.60;;;;;;;;;;4859913;29;20247;-87
2022/01/02 02:00:00;;;;;;;33.37;13.63;;;;;;;;;;4862167;29;20215;-87
2022/01/02 02:02:27;;;;;;;26.47;13.77;;;2.80;99.90;;;;;;4860229;29;20222;-88
2022/01/02 02:04:52;;;;;;;30.90;13.20;;;;;;;;;;4860178;29;20217;-87
2022/01/02 02:07:26;;;;;;;34.10;14.57;;;2.70;99.90;;;;;;4859665;29;20642;-88
2022/01/02 02:12:18;;;;;;;34.23;14.33;;;;;;;;;;4860082;29;20286;-88
2022/01/02 02:14:45;;;;;;;29.13;13.07;;;;;;;;;;4859228;29;20389;-88
2022/01/02 02:17:11;;;;;;;38.83;15.00;;;2.70;99.90;;;;;;4861147;29;20272;-88
2022/01/02 02:19:37;;;;;;;41.47;15.77;;;;;;;;;;4859840;29;20187;-88
2022/01/02 02:22:04;;;;;;;44.40;18.93;;;;;;;;;;4859643;29;20190;-88
2022/01/02 02:24:30;;;;;;;38.50;16.37;;;;;;;;;;4860718;29;20323;-88
2022/01/02 02:26:56;;;;;;;39.10;17.03;;;;;;;;;;4860975;29;20640;-87
2022/01/02 02:29:22;;;;;;;34.37;15.77;;;;;;;;;;4844300;29;20194;-87
2022/01/02 02:31:48;;;;;;;55.80;23.40;;;2.40;99.90;;;;;;4859345;29;20190;-87
2022/01/02 02:34:14;;;;;;;51.20;21.53;;;;;;;;;;4860237;29;20226;-88
2022/01/02 02:36:40;;;;;;;56.97;22.33;;;;;;;;;;4860439;29;20679;-87
2022/01/02 02:39:06;;;;;;;54.47;21.40;;;;;;;;;;4844004;29;20206;-87
2022/01/02 02:41:35;;;;;;;56.10;25.33;;;;;;;;;;4859397;29;20188;-87
2022/01/02 02:44:08;;;;;;;48.20;21.97;;;;;;;;;;4860884;29;20209;-87
2022/01/02 02:49:26;;;;;;;41.37;18.07;;;;;;;;;;4851588;29;20190;-87
2022/01/02 02:52:07;;;;;;;39.83;17.63;;;;;;;;;;4860538;29;20198;-88
2022/01/02 02:54:35;;;;;;;36.93;16.00;;;;;;;;;;4858953;29;20235;-88
2022/01/02 02:57:04;;;;;;;35.63;15.00;;;;;;;;;;4844486;29;20332;-86
2022/01/02 02:59:32;;;;;;;28.50;14.43;;;2.20;99.90;;;;;;4864024;29;20636;-87
2022/01/02 03:01:58;;;;;;;34.10;14.90;;;;;;;;;;4862851;29;20206;-87
2022/01/02 03:04:24;;;;;;;36.60;15.43;;;;;;;;;;4863107;29;20201;-87
2022/01/02 03:06:50;;;;;;;47.63;19.97;;;;;;;;;;4864539;29;20191;-87
2022/01/02 03:09:29;;;;;;;38.37;17.30;;;;;;;;;;4864184;29;20221;-87
2022/01/02 03:11:55;;;;;;;44.17;19.83;;;;;;;;;;4864598;29;20298;-87
2022/01/02 03:14:21;;;;;;;59.83;25.57;;;;;;;;;;4847523;29;20309;-88
2022/01/02 03:16:47;;;;;;;35.17;13.90;;;;;;;;;;4862493;29;20543;-87
2022/01/02 03:19:13;;;;;;;27.43;11.60;;;;;;;;;;4862914;29;20195;-87
2022/01/02 03:21:39;;;;;;;21.90;10.23;;;;;;;;;;4862451;29;20235;-87
2022/01/02 03:24:05;;;;;;;24.90;11.87;;;;;;;;;;4862650;29;20194;-87
2022/01/02 03:26:31;;;;;;;34.60;14.73;;;;;;;;;;4847277;29;20195;-86
2022/01/02 03:28:57;;;;;;;27.80;11.33;;;;;;;;;;4862250;29;20286;-86
2022/01/02 03:31:23;;;;;;;110.13;42.57;;;;;;;;;;4863858;29;20219;-87
2022/01/02 03:33:49;;;;;;;73.73;32.43;;;;;;;;;;4862329;29;20218;-87
2022/01/02 03:36:15;;;;;;;86.70;37.70;;;;;;;;;;4847288;29;20708;-86
2022/01/02 03:38:41;;;;;;;86.40;33.93;;;;;;;;;;4846876;29;20187;-86
2022/01/02 03:41:07;;;;;;;88.80;37.20;;;;;;;;;;4847303;29;20183;-86
2022/01/02 03:43:33;;;;;;;63.33;28.47;;;;;;;;;;4863702;29;20261;-87
2022/01/02 03:46:02;;;;;;;64.93;30.23;;;;;;;;;;4862213;29;20198;-86
2022/01/02 03:48:29;;;;;;;74.90;33.10;;;;;;;;;;4863382;29;20211;-87
2022/01/02 03:50:55;;;;;;;116.30;46.50;;;;;;;;;;4846690;29;20187;-86
2022/01/02 03:53:21;;;;;;;147.83;62.83;;;;;;;;;;4863462;29;20211;-87
2022/01/02 03:55:47;;;;;;;79.87;35.17;;;;;;;;;;4862858;29;20239;-87
2022/01/02 03:58:13;;;;;;;57.43;27.93;;;;;;;;;;4862337;29;20182;-87
2022/01/02 04:00:39;;;;;;;61.93;28.87;;;;;;;;;;4862256;29;20283;-87
2022/01/02 04:03:05;;;;;;;57.57;28.20;;;;;;;;;;4861871;29;20194;-87
2022/01/02 04:05:31;;;;;;;52.57;28.20;;;;;;;;;;4861936;29;20186;-87
2022/01/02 04:07:57;;;;;;;43.63;24.10;;;;;;;;;;4861552;29;20644;-87
2022/01/02 04:10:23;;;;;;;34.73;19.70;;;;;;;;;;4861766;29;20182;-87
2022/01/02 04:12:49;;;;;;;29.20;16.00;;;;;;;;;;4846059;29;20190;-88
2022/01/02 04:15:16;;;;;;;27.70;15.80;;;;;;;;;;4846667;29;20615;-86
2022/01/02 04:17:42;;;;;;;25.43;14.20;;;;;;;;;;4862495;29;20253;-87
2022/01/02 04:20:11;;;;;;;23.70;13.17;;;2.00;99.90;;;;;;4861457;29;20251;-88
2022/01/02 04:22:37;;;;;;;25.13;13.87;;;;;;;;;;4861465;29;20644;-87
2022/01/02 04:25:04;;;;;;;31.77;15.33;;;2.00;99.90;;;;;;4861350;29;20281;-87
2022/01/02 04:27:30;;;;;;;21.43;11.37;;;;;;;;;;4861662;29;20191;-85
2022/01/02 04:29:56;;;;;;;29.77;14.33;;;;;;;;;;4862628;29;20187;-86
2022/01/02 04:32:22;;;;;;;22.50;13.37;;;;;;;;;;4846336;29;20199;-86
2022/01/02 04:34:48;;;;;;;27.90;15.43;;;;;;;;;;4862280;29;20223;-87
2022/01/02 04:37:15;;;;;;;41.33;24.37;;;;;;;;;;4861075;29;20195;-87
2022/01/02 04:39:41;;;;;;;41.30;24.13;;;;;;;;;;4845877;29;20627;-87
2022/01/02 04:42:07;;;;;;;24.83;15.07;;;1.70;99.90;;;;;;4860828;29;20692;-87
2022/01/02 04:44:33;;;;;;;31.30;17.90;;;;;;;;;;4862892;29;20198;-87
2022/01/02 04:46:59;;;;;;;33.13;17.70;;;;;;;;;;4862100;29;20186;-88
2022/01/02 04:49:26;;;;;;;37.77;22.70;;;;;;;;;;4862565;29;20222;-87
2022/01/02 04:51:53;;;;;;;25.63;16.07;;;;;;;;;;4860790;29;20190;-87
2022/01/02 04:54:20;;;;;;;43.37;25.97;;;2.00;99.90;;;;;;4860852;29;20218;-87
2022/01/02 04:56:46;;;;;;;28.03;15.40;;;;;;;;;;4861786;29;20230;-88
2022/01/02 04:59:12;;;;;;;18.23;10.07;;;;;;;;;;4860911;29;20310;-87
2022/01/02 05:01:38;;;;;;;23.43;13.33;;;;;;;;;;4864256;29;20265;-86
2022/01/02 05:04:04;;;;;;;20.00;10.60;;;;;;;;;;4861529;29;20205;-87
2022/01/02 05:06:30;;;;;;;25.20;13.23;;;;;;;;;;4868405;29;20191;-89
2022/01/02 05:08:56;;;;;;;20.37;12.00;;;;;;;;;;4874391;29;20245;-88
2022/01/02 05:11:23;;;;;;;12.87;9.03;;;;;;;;;;4862829;29;20636;-89
2022/01/02 05:13:49;;;;;;;13.83;8.27;;;;;;;;;;4864856;29;20218;-91
2022/01/02 05:16:15;;;;;;;15.97;8.90;;;;;;;;;;4863987;29;20730;-90
2022/01/02 05:18:41;;;;;;;22.47;11.30;;;;;;;;;;4861670;29;20215;-89
2022/01/02 05:21:07;;;;;;;23.07;12.53;;;;;;;;;;4845710;29;20190;-90
2022/01/02 05:23:33;;;;;;;33.00;17.30;;;;;;;;;;4847084;29;20644;-90
2022/01/02 05:25:59;;;;;;;22.00;11.27;;;;;;;;;;4862225;29;20242;-91
2022/01/02 05:28:26;;;;;;;23.47;12.57;;;;;;;;;;4861090;29;20190;-92
2022/01/02 05:30:52;;;;;;;22.03;12.37;;;;;;;;;;4861996;29;20209;-90
2022/01/02 05:33:18;;;;;;;19.73;11.53;;;;;;;;;;4861540;29;20186;-90
2022/01/02 05:35:44;;;;;;;23.57;13.43;;;;;;;;;;4860239;29;20226;-90
2022/01/02 05:38:10;;;;;;;24.57;13.73;;;;;;;;;;4860230;29;20209;-90
2022/01/02 05:40:36;;;;;;;26.73;13.13;;;;;;;;;;4861680;29;20637;-90
2022/01/02 05:43:05;;;;;;;22.27;13.23;;;2.20;99.90;;;;;;4844977;29;20190;-89
2022/01/02 05:45:31;;;;;;;26.67;12.70;;;;;;;;;;4861459;29;20186;-90
2022/01/02 05:47:57;;;;;;;29.83;13.43;;;;;;;;;;4861393;29;20270;-90
2022/01/02 05:50:23;;;;;;;28.43;12.40;;;2.30;99.90;;;;;;4860309;29;20439;-89
2022/01/02 05:52:50;;;;;;;27.10;11.97;;;;;;;;;;4860152;29;20675;-91
2022/01/02 05:55:16;;;;;;;32.23;13.60;;;;;;;;;;4860069;29;20249;-91
2022/01/02 05:57:42;;;;;;;20.60;9.23;;;;;;;;;;4844340;29;20238;-90
2022/01/02 06:00:09;;;;;;;20.57;9.80;;;2.30;99.90;;;;;;4859677;29;20697;-89
2022/01/02 06:02:36;;;;;;;17.40;8.63;;;;;;;;;;4860124;29;20212;-90
2022/01/02 06:05:03;;;;;;;15.33;6.53;;;2.40;99.90;;;;;;4860090;29;20632;-91
2022/01/02 06:07:31;;;;;;;15.33;7.67;;;2.40;99.90;;;;;;4844761;29;20302;-91
2022/01/02 06:09:57;;;;;;;20.67;9.63;;;;;;;;;;4861355;29;20190;-90
2022/01/02 06:12:23;;;;;;;21.27;9.53;;;;;;;;;;4859592;29;20443;-90
2022/01/02 06:14:49;;;;;;;20.90;9.50;;;2.40;99.90;;;;;;4859747;29;20219;-90
2022/01/02 06:17:16;;;;;;;18.80;9.93;;;;;;;;;;4859731;29;20190;-91
2022/01/02 06:19:42;;;;;;;17.37;9.27;;;;;;;;;;4859921;29;20190;-91
2022/01/02 06:22:08;;;;;;;20.37;11.90;;;;;;;;;;4859302;29;20183;-91
2022/01/02 06:24:34;;;;;;;18.67;9.87;;;;;;;;;;4861120;29;20278;-91
2022/01/02 06:27:00;;;;;;;16.33;8.63;;;;;;;;;;4859453;29;20273;-89
2022/01/02 06:29:26;;;;;;;20.60;9.27;;;;;;;;;;4859485;29;20275;-90
2022/01/02 06:31:52;;;;;;;23.67;10.53;;;;;;;;;;4859696;29;20661;-90
2022/01/02 06:34:18;;;;;;;22.00;10.53;;;;;;;;;;4844005;29;20226;-90
2022/01/02 06:36:44;;;;;;;18.17;9.33;;;;;;;;;;4860439;29;20691;-89
2022/01/02 06:39:10;;;;;;;21.40;8.90;;;;;;;;;;4860706;29;20335;-90
2022/01/02 06:41:36;;;;;;;20.43;8.20;;;;;;;;;;4859618;29;20689;-89
2022/01/02 06:44:02;;;;;;;25.20;10.83;;;;;;;;;;4859389;29;20571;-89
2022/01/02 06:46:28;;;;;;;30.70;12.37;;;;;;;;;;4859086;29;20564;-89
2022/01/02 06:48:54;;;;;;;22.17;11.10;;;2.50;99.90;;;;;;4859093;29;20191;-89
2022/01/02 06:51:20;;;;;;;28.77;13.50;;;;;;;;;;4843294;29;20258;-90
2022/01/02 06:53:46;;;;;;;27.70;13.23;;;;;;;;;;4859436;29;20317;-90
2022/01/02 06:56:12;;;;;;;31.57;17.23;;;;;;;;;;4860392;29;20723;-89
2022/01/02 06:58:40;;;;;;;32.63;13.03;;;;;;;;;;4859221;29;20187;-90
2022/01/02 07:01:06;;;;;;;31.47;13.80;;;2.70;99.90;;;;;;4859052;29;20281;-88
2022/01/02 07:03:33;;;;;;;29.77;12.80;;;;;;;;;;4860451;29;20192;-88
2022/01/02 07:06:00;;;;;;;18.40;10.00;;;;;;;;;;4860015;29;20197;-89
2022/01/02 07:08:27;;;;;;;25.13;12.77;;;;;;;;;;4860631;29;20187;-89
2022/01/02 07:10:54;;;;;;;31.93;12.63;;;2.80;99.90;;;;;;4865591;29;20218;-88
2022/01/02 07:13:20;;;;;;;34.97;14.60;;;;;;;;;;4869547;29;20186;-87
2022/01/02 07:15:46;;;;;;;26.47;12.57;;;;;;;;;;4865109;29;20270;-87
2022/01/02 07:18:12;;;;;;;45.20;17.87;;;;;;;;;;4869339;29;20931;-85
2022/01/02 07:20:38;;;;;;;31.83;14.13;;;;;;;;;;4866843;29;20182;-93
2022/01/02 07:23:04;;;;;;;30.00;14.40;;;;;;;;;;4871008;29;20191;-87
2022/01/02 07:25:30;;;;;;;46.47;16.27;;;;;;;;;;4867781;29;20193;-87
2022/01/02 07:27:56;;;;;;;36.87;15.10;;;;;;;;;;4870034;29;20193;-89
2022/01/02 07:30:22;;;;;;;53.23;23.37;;;;;;;;;;4858308;29;20285;-90
2022/01/02 07:32:48;;;;;;;65.23;27.97;;;;;;;;;;4866272;29;20195;-88
2022/01/02 07:35:14;;;;;;;151.93;63.07;;;;;;;;;;4854649;29;21030;-89
2022/01/02 07:37:40;;;;;;;136.23;61.00;;;;;;;;;;4849282;29;20579;-88
2022/01/02 07:40:07;;;;;;;112.27;54.20;;;3.20;99.90;;;;;;4838306;29;20283;-90
2022/01/02 07:42:33;;;;;;;68.30;28.17;;;3.10;99.90;;;;;;4853446;29;20194;-89
2022/01/02 07:44:59;;;;;;;53.57;22.53;;;;;;;;;;4858049;29;20680;-89
2022/01/02 07:47:25;;;;;;;44.20;20.63;;;;;;;;;;4840996;29;20251;-87
2022/01/02 07:49:51;;;;;;;44.50;20.30;;;;;;;;;;4859133;29;20187;-89
2022/01/02 07:52:18;;;;;;;61.33;24.20;;;;;;;;;;4841358;29;20278;-90
2022/01/02 07:54:44;;;;;;;55.93;23.87;;;;;;;;;;4836302;29;20260;-88
2022/01/02 07:57:10;;;;;;;41.73;20.77;;;;;;;;;;4852380;29;20230;-88
2022/01/02 07:59:36;;;;;;;51.43;21.73;;;;;;;;;;4857031;29;20192;-87
2022/01/02 08:02:02;;;;;;;43.30;20.40;;;;;;;;;;4858597;29;20189;-86
2022/01/02 08:04:28;;;;;;;39.23;18.90;;;;;;;;;;4856396;29;20217;-87
2022/01/02 08:06:54;;;;;;;30.67;15.87;;;;;;;;;;4842187;29;20197;-88
2022/01/02 08:09:20;;;;;;;39.20;17.83;;;;;;;;;;4851260;29;20249;-85
2022/01/02 08:11:46;;;;;;;38.07;17.80;;;;;;;;;;4870162;29;20206;-86
2022/01/02 08:14:12;;;;;;;33.77;16.83;;;;;;;;;;4857487;29;20241;-86
2022/01/02 08:16:39;;;;;;;24.47;12.60;;;;;;;;;;4850812;29;20190;-86
2022/01/02 08:19:06;;;;;;;36.47;16.23;;;;;;;;;;4844069;29;20206;-86
2022/01/02 08:21:32;;;;;;;39.53;17.97;;;;;;;;;;4852247;29;20656;-86
2022/01/02 08:23:58;;;;;;;32.47;13.70;;;;;;;;;;4859259;29;20249;-87
2022/01/02 08:26:33;;;;;;;27.53;14.20;;;;;;;;;;4854430;29;20205;-86
2022/01/02 08:29:01;;;;;;;34.53;16.47;;;;;;;;;;4856814;29;20275;-87
2022/01/02 08:31:28;;;;;;;30.33;15.53;;;4.10;99.90;;;;;;4846720;29;20198;-89
2022/01/02 08:33:55;;;;;;;26.87;14.60;;;;;;;;;;4854781;29;20270;-88
2022/01/02 08:36:21;;;;;;;31.97;13.90;;;;;;;;;;4846634;29;20199;-87
2022/01/02 08:38:47;;;;;;;27.40;12.63;;;;;;;;;;4857786;29;20258;-87
2022/01/02 08:41:14;;;;;;;28.57;14.23;;;4.20;99.90;;;;;;4848286;29;20193;-88
2022/01/02 08:43:40;;;;;;;34.13;14.73;;;;;;;;;;4848070;29;20247;-88
2022/01/02 08:46:06;;;;;;;29.97;15.00;;;;;;;;;;4853873;29;20232;-88
2022/01/02 08:48:34;;;;;;;26.20;14.40;;;4.30;99.90;;;;;;4846261;29;20199;-89
2022/01/02 08:51:00;;;;;;;26.57;14.13;;;;;;;;;;4852425;29;20208;-88
2022/01/02 08:53:27;;;;;;;26.47;13.77;;;;;;;;;;4849067;29;20246;-88
2022/01/02 08:55:53;;;;;;;25.67;12.17;;;;;;;;;;4850933;29;20774;-86
2022/01/02 08:58:19;;;;;;;27.73;12.80;;;;;;;;;;4855788;29;20670;-87
2022/01/02 09:00:46;;;;;;;21.73;12.23;;;4.40;99.90;;;;;;4848559;29;20194;-88
2022/01/02 09:03:12;;;;;;;22.63;12.20;;;;;;;;;;4856641;29;20508;-87
2022/01/02 09:05:38;;;;;;;22.03;12.13;;;;;;;;;;4852368;29;20649;-86
2022/01/02 09:08:05;;;;;;;33.33;15.17;;;4.50;99.90;;;;;;4858732;29;20242;-87
2022/01/02 09:10:31;;;;;;;25.20;13.60;;;;;;;;;;4842638;29;20197;-86
2022/01/02 09:12:57;;;;;;;22.20;11.93;;;;;;;;;;4856927;29;20663;-87
2022/01/02 09:15:23;;;;;;;38.30;16.27;;;;;;;;;;4854908;29;20254;-86
2022/01/02 09:17:49;;;;;;;23.57;13.17;;;;;;;;;;4852306;29;20214;-85
2022/01/02 09:20:17;;;;;;;24.50;11.80;;;;;;;;;;4854326;29;20196;-86
2022/01/02 09:22:43;;;;;;;20.87;11.77;;;;;;;;;;4852188;29;20197;-86
2022/01/02 09:25:10;;;;;;;21.23;13.50;;;5.00;99.90;;;;;;4858392;29;20194;-85
2022/01/02 09:27:37;;;;;;;20.27;11.73;;;5.70;99.90;;;;;;4852966;29;20197;-87
2022/01/02 09:30:10;;;;;;;29.47;14.90;;;6.20;99.90;;;;;;4838475;29;20549;-85
2022/01/02 09:32:36;;;;;;;25.70;13.27;;;;;;;;;;4861421;29;20198;-88
2022/01/02 09:35:07;;;;;;;27.37;15.13;;;5.90;99.90;;;;;;4851221;29;20221;-86
2022/01/02 09:37:36;;;;;;;28.57;14.30;;;;;;;;;;4853481;29;20203;-88
2022/01/02 09:40:04;;;;;;;26.53;14.73;;;5.50;99.90;;;;;;4852927;29;20197;-89
2022/01/02 09:42:30;;;;;;;29.27;15.03;;;;;;;;;;4851583;29;20203;-90
2022/01/02 09:44:56;;;;;;;29.40;13.97;;;;;;;;;;4849750;29;20198;-87
2022/01/02 09:47:23;;;;;;;24.40;11.60;;;5.20;99.90;;;;;;4854627;29;20201;-88
2022/01/02 09:49:49;;;;;;;25.07;13.10;;;;;;;;;;4851238;29;20699;-90
2022/01/02 09:52:16;;;;;;;22.87;11.57;;;;;;;;;;4853265;29;20190;-90
2022/01/02 09:54:42;;;;;;;22.27;11.47;;;;;;;;;;4854118;29;20258;-90
2022/01/02 09:57:08;;;;;;;30.53;13.97;;;;;;;;;;4847989;29;20321;-89
2022/01/02 09:59:34;;;;;;;28.43;14.13;;;;;;;;;;4844668;29;20213;-87
2022/01/02 10:02:01;;;;;;;32.80;16.87;;;;;;;;;;4855157;29;20189;-88
2022/01/02 10:04:38;;;;;;;40.83;18.97;;;5.10;99.90;;;;;;4842723;29;20202;-89
2022/01/02 10:07:06;;;;;;;31.10;15.90;;;5.20;99.90;;;;;;4847342;29;20225;-88
2022/01/02 10:09:37;;;;;;;35.50;16.97;;;5.20;99.90;;;;;;4850987;29;20207;-87
2022/01/02 10:12:28;;;;;;;44.93;21.60;;;5.40;99.90;;;;;;4859870;29;20193;-89
2022/01/02 10:15:06;;;;;;;37.50;18.10;;;5.60;99.90;;;;;;4850961;29;20249;-88
2022/01/02 10:18:07;;;;;;;30.13;15.63;;;5.30;99.90;;;;;;4849347;29;20194;-89
2022/01/02 10:20:33;;;;;;;53.27;26.93;;;;;;;;;;4846826;29;20181;-87
2022/01/02 10:23:20;;;;;;;53.57;27.20;;;5.40;99.90;;;;;;4853478;29;20191;-88
2022/01/02 10:25:53;;;;;;;52.60;25.40;;;5.80;99.90;;;;;;4846603;29;20195;-89
2022/01/02 10:28:19;;;;;;;52.87;26.20;;;5.50;99.90;;;;;;4855524;29;20694;-87
2022/01/02 10:30:49;;;;;;;49.50;23.03;;;5.50;99.90;;;;;;4850520;29;20683;-89
2022/01/02 10:33:16;;;;;;;54.67;24.80;;;;;;;;;;4858767;29;20604;-87
2022/01/02 10:35:42;;;;;;;50.93;23.93;;;;;;;;;;4858702;29;20225;-86
2022/01/02 10:38:15;;;;;;;31.57;13.97;;;5.60;99.90;;;;;;4853347;29;20278;-88
2022/01/02 10:40:42;;;;;;;36.93;16.27;;;;;;;;;;4853702;29;20241;-88
2022/01/02 10:43:27;;;;;;;39.10;15.40;;;5.70;99.90;;;;;;4850711;29;20206;-88
2022/01/02 10:45:55;;;;;;;53.60;26.30;;;5.70;99.90;;;;;;4854226;29;20201;-91
2022/01/02 10:48:30;;;;;;;45.87;18.07;;;5.60;99.90;;;;;;4857225;29;20205;-90
2022/01/02 10:51:01;;;;;;;42.47;18.97;;;5.80;99.90;;;;;;4861333;29;20181;-92
2022/01/02 10:53:28;;;;;;;43.90;19.17;;;;;;;;;;4859050;29;20194;-89
2022/01/02 10:55:54;;;;;;;41.17;17.57;;;;;;;;;;4841490;29;20611;-90
2022/01/02 10:58:20;;;;;;;30.07;15.07;;;;;;;;;;4854253;29;20229;-90
2022/01/02 11:00:47;;;;;;;46.43;20.73;;;6.10;99.90;;;;;;4855691;29;20198;-90
2022/01/02 11:03:13;;;;;;;36.63;16.53;;;;;;;;;;4855379;29;20659;-89
2022/01/02 11:05:39;;;;;;;30.83;14.23;;;6.10;99.90;;;;;;4853675;29;20195;-88
2022/01/02 11:08:06;;;;;;;30.43;14.87;;;;;;;;;;4852986;29;20278;-90
2022/01/02 11:10:35;;;;;;;33.97;16.73;;;6.20;99.90;;;;;;4851167;29;20199;-89
2022/01/02 11:13:05;;;;;;;36.83;17.63;;;6.20;99.90;;;;;;4848692;29;20206;-88
2022/01/02 11:15:33;;;;;;;34.87;17.80;;;6.20;99.90;;;;;;4855601;29;20210;-87
2022/01/02 11:17:59;;;;;;;38.33;16.87;;;;;;;;;;4854606;29;20640;-88
2022/01/02 11:20:29;;;;;;;43.10;19.20;;;6.20;99.90;;;;;;4858010;29;20186;-89
2022/01/02 11:23:29;;;;;;;52.73;23.97;;;6.30;99.90;;;;;;4857642;29;20243;-89
2022/01/02 11:26:21;;;;;;;46.53;20.37;;;6.30;99.90;;;;;;4856177;29;20187;-88
2022/01/02 11:28:51;;;;;;;44.97;20.00;;;6.30;99.90;;;;;;4854722;29;20195;-87
2022/01/02 11:31:31;;;;;;;45.43;19.13;;;6.30;99.90;;;;;;4852250;29;20201;-86
2022/01/02 11:33:57;;;;;;;47.70;18.70;;;6.40;99.90;;;;;;4857172;29;20187;-88
2022/01/02 11:36:24;;;;;;;51.60;22.83;;;;;;;;;;4855381;29;20198;-87
2022/01/02 11:39:10;;;;;;;40.60;17.50;;;6.40;99.90;;;;;;4858229;29;20651;-88
2022/01/02 11:41:38;;;;;;;44.83;18.67;;;6.50;99.90;;;;;;4853355;29;20376;-88
2022/01/02 11:44:08;;;;;;;44.13;18.67;;;6.50;99.90;;;;;;4857735;29;20194;-88
2022/01/02 11:46:48;;;;;;;40.10;18.47;;;6.60;99.90;;;;;;4858693;29;20191;-86
2022/01/02 11:49:37;;;;;;;46.93;19.20;;;6.60;99.90;;;;;;4846264;29;20185;-88
2022/01/02 11:52:09;;;;;;;51.67;22.20;;;6.70;99.90;;;;;;4856609;29;20197;-86
2022/01/02 11:54:46;;;;;;;51.50;22.83;;;6.70;99.90;;;;;;4855633;29;20290;-87
2022/01/02 11:57:14;;;;;;;52.57;21.53;;;;;;;;;;4851672;29;20230;-87
2022/01/02 11:59:44;;;;;;;46.00;20.60;;;;;;;;;;4852399;29;20269;-87
2022/01/02 12:02:23;;;;;;;61.73;23.07;;;6.70;99.90;;;;;;4855624;29;20199;-87
2022/01/02 12:07:35;;;;;;;48.93;22.60;;;6.70;99.90;;;;;;4850257;29;20259;-89
2022/01/02 12:10:23;;;;;;;44.63;20.97;;;6.50;99.90;;;;;;4851332;29;20186;-86
2022/01/02 12:13:13;;;;;;;43.23;20.40;;;6.90;99.90;;;;;;4852938;29;20605;-87
2022/01/02 12:15:39;;;;;;;40.53;19.13;;;;;;;;;;4854526;29;21035;-87
2022/01/02 12:18:08;;;;;;;39.37;16.87;;;;;;;;;;4851485;29;20277;-88
2022/01/02 12:21:00;;;;;;;34.97;16.67;;;6.80;99.90;;;;;;4856685;29;20194;-88
2022/01/02 12:23:33;;;;;;;36.63;16.70;;;6.80;99.90;;;;;;4852019;29;20187;-89
2022/01/02 12:26:06;;;;;;;32.97;15.57;;;6.80;99.90;;;;;;4853537;29;20191;-86
2022/01/02 12:28:56;;;;;;;36.93;16.33;;;7.10;99.90;;;;;;4850999;29;20191;-87
2022/01/02 12:31:26;;;;;;;30.83;14.30;;;6.80;99.90;;;;;;4857261;29;20254;-88
2022/01/02 12:33:52;;;;;;;27.60;13.57;;;6.80;99.90;;;;;;4860666;29;20186;-86
2022/01/02 12:36:19;;;;;;;32.57;12.60;;;7.10;99.90;;;;;;4852630;29;20209;-87
2022/01/02 12:38:53;;;;;;;26.47;12.33;;;7.30;99.90;;;;;;4853414;29;20197;-85
2022/01/02 12:41:23;;;;;;;23.97;12.03;;;7.30;99.90;;;;;;4854864;29;20195;-87
2022/01/02 12:43:59;;;;;;;26.30;13.03;;;7.30;99.90;;;;;;4856005;29;20182;-88
2022/01/02 12:46:40;;;;;;;32.93;15.70;;;7.30;99.90;;;;;;4852693;29;20183;-85
2022/01/02 12:49:08;;;;;;;20.83;12.20;;;7.30;99.90;;;;;;4866686;29;20195;-86
2022/01/02 12:51:35;;;;;;;24.23;12.20;;;7.30;99.90;;;;;;4860819;29;20191;-86
2022/01/02 12:54:07;;;;;;;21.23;11.93;;;7.10;99.90;;;;;;4861623;29;20191;-85
2022/01/02 12:57:00;;;;;;;26.03;12.20;;;7.20;99.90;;;;;;4858341;29;20315;-87
2022/01/02 12:59:49;;;;;;;26.43;13.00;;;7.30;99.90;;;;;;4852290;29;20208;-88
2022/01/02 13:02:19;;;;;;;20.97;11.20;;;7.30;99.90;;;;;;4852768;29;20214;-84
2022/01/02 13:04:50;;;;;;;20.60;11.87;;;8.90;99.90;;;;;;4868328;29;20199;-89
2022/01/02 13:07:24;;;;;;;22.87;11.87;;;7.30;99.90;;;;;;4854169;29;20195;-88
2022/01/02 13:09:52;;;;;;;19.83;10.70;;;7.30;99.90;;;;;;4853885;29;20207;-88
2022/01/02 13:12:21;;;;;;;20.47;12.10;;;7.30;99.90;;;;;;4852150;29;20195;-87
2022/01/02 13:14:52;;;;;;;22.47;12.00;;;7.30;99.90;;;;;;4855445;29;20218;-87
2022/01/02 13:17:20;;;;;;;18.60;10.10;;;;;;;;;;4855853;29;20194;-84
2022/01/02 13:20:10;;;;;;;17.40;10.17;;;7.30;99.90;;;;;;4857327;29;20273;-86
2022/01/02 13:22:45;;;;;;;18.90;9.53;;;7.10;99.90;;;;;;4854591;29;20210;-85
2022/01/02 13:25:17;;;;;;;20.50;10.27;;;7.40;99.90;;;;;;4857203;29;20254;-87
2022/01/02 13:28:01;;;;;;;18.17;10.00;;;7.60;99.90;;;;;;4864338;29;20245;-85
2022/01/02 13:30:37;;;;;;;18.33;10.23;;;7.40;99.90;;;;;;4859428;29;20221;-87
2022/01/02 13:33:03;;;;;;;20.30;10.37;;;;;;;;;;4861925;29;20190;-88
2022/01/02 13:35:30;;;;;;;18.40;9.97;;;7.30;99.90;;;;;;4876555;29;20240;-86
2022/01/02 13:38:04;;;;;;;16.93;10.80;;;7.30;99.90;;;;;;4856256;29;20195;-86
2022/01/02 13:40:33;;;;;;;19.00;10.50;;;7.30;99.90;;;;;;4861543;29;20194;-86
2022/01/02 13:43:13;;;;;;;19.70;10.90;;;7.20;99.90;;;;;;4852411;29;20209;-86
2022/01/02 13:45:39;;;;;;;27.57;14.53;;;;;;;;;;4853104;29;20203;-87
2022/01/02 13:48:11;;;;;;;19.27;10.80;;;7.20;99.90;;;;;;4856786;29;20203;-87
2022/01/02 13:50:41;;;;;;;24.73;12.47;;;7.20;99.90;;;;;;4853022;29;20194;-89
2022/01/02 13:53:21;;;;;;;15.80;10.20;;;7.30;99.90;;;;;;4869075;29;20203;-86